Lattimore, North Carolina
Current Conditions -  °F | °C
As of 3:55 AM on Thursday 23 Oct 2014 (Local Time) from KEHO Reporting Station
Clear Clear  
Wind Chill: 41°   Ceiling: Unl
Heat Index: 41°   Visibility: 10mi
Dew Point: 37°   Wind: 3mph
Humidity: 85%   Direction: 280°W
Pressure: 30.08"   Gusts: NA
Location:  35.32°N, 81.66°W
Report Text: KEHO 230755Z AUTO 28003KT 10SM CLR 05/03 A3008 RMK AO2 T00520028
Loading
Personal Weather Stations






























Interactive Weather Map
Tropical Storm Tracking
New forecast layout! Learn more

10-Day Weather Forecast

Advertisements
Track Severe Weather on mobile